createdAt,value
2018-01-08T00:02:14.589Z,4.90
2018-01-08T00:04:42.961Z,3.93
2018-01-08T00:07:11.442Z,4.17
2018-01-08T00:09:39.806Z,5.24
2018-01-08T00:12:08.173Z,5.11
2018-01-08T00:14:36.526Z,5.92
2018-01-08T00:17:04.922Z,4.19
2018-01-08T00:19:33.326Z,4.72
2018-01-08T00:22:01.712Z,4.45
2018-01-08T00:24:30.083Z,3.85
2018-01-08T00:26:58.659Z,3.85
2018-01-08T00:29:27.029Z,4.51
2018-01-08T00:31:55.379Z,3.88
2018-01-08T00:34:23.794Z,4.93
2018-01-08T00:36:52.155Z,5.56
2018-01-08T00:39:20.524Z,4.93
2018-01-08T00:41:48.894Z,4.97
2018-01-08T00:44:17.300Z,4.37
2018-01-08T00:46:45.679Z,4.40
2018-01-08T00:49:14.049Z,4.08
2018-01-08T00:51:42.420Z,3.48
2018-01-08T00:54:10.785Z,5.55
2018-01-08T00:56:39.182Z,5.05
2018-01-08T00:59:07.556Z,5.32
2018-01-08T01:01:35.950Z,4.52
2018-01-08T01:04:04.327Z,4.94
2018-01-08T01:06:32.699Z,4.60
2018-01-08T01:09:01.060Z,5.14
2018-01-08T01:11:29.419Z,4.55
2018-01-08T01:13:57.818Z,4.06
2018-01-08T01:16:26.169Z,3.72
2018-01-08T01:18:54.536Z,4.24
2018-01-08T01:21:22.897Z,4.53
2018-01-08T01:23:51.256Z,4.26
2018-01-08T01:26:19.640Z,5.62
2018-01-08T01:28:47.996Z,4.74
2018-01-08T01:31:16.524Z,4.21
2018-01-08T01:33:44.874Z,4.95
2018-01-08T01:36:13.240Z,5.20
2018-01-08T01:38:41.620Z,4.76
2018-01-08T01:41:09.988Z,5.22
2018-01-08T01:43:38.371Z,4.23
2018-01-08T01:46:06.731Z,5.00
2018-01-08T01:48:35.093Z,4.43
2018-01-08T01:51:03.447Z,4.64
2018-01-08T01:53:31.804Z,5.15
2018-01-08T01:56:00.170Z,4.70
2018-01-08T01:58:28.538Z,4.65
2018-01-08T02:00:56.897Z,3.50
2018-01-08T02:03:25.291Z,4.55
2018-01-08T02:05:53.661Z,4.29
2018-01-08T02:08:22.027Z,4.74
2018-01-08T02:10:50.455Z,5.04
2018-01-08T02:13:18.800Z,4.17
2018-01-08T02:15:47.208Z,4.55
2018-01-08T02:18:15.559Z,4.57
2018-01-08T02:20:43.936Z,3.89
2018-01-08T02:23:12.311Z,5.01
2018-01-08T02:25:40.703Z,5.21
2018-01-08T02:28:09.055Z,5.01
2018-01-08T02:30:37.439Z,4.96
2018-01-08T02:33:05.825Z,4.65
2018-01-08T02:35:34.185Z,4.69
2018-01-08T02:38:02.576Z,4.65
2018-01-08T02:40:30.927Z,4.87
2018-01-08T02:42:59.284Z,5.73
2018-01-08T02:45:27.671Z,4.72
2018-01-08T02:47:56.030Z,5.68
2018-01-08T02:50:24.431Z,4.70
2018-01-08T02:52:52.805Z,4.53
2018-01-08T02:55:21.181Z,4.92
2018-01-08T02:57:49.536Z,4.78
2018-01-08T03:00:17.887Z,4.81
2018-01-08T03:02:46.256Z,4.89
2018-01-08T03:05:14.621Z,5.22
2018-01-08T03:07:42.983Z,4.96
2018-01-08T03:10:11.359Z,4.88
2018-01-08T03:12:39.730Z,4.18
2018-01-08T03:15:08.110Z,4.28
2018-01-08T03:17:36.473Z,4.17
2018-01-08T03:20:04.839Z,5.68
2018-01-08T03:22:33.215Z,4.93
2018-01-08T03:25:01.612Z,4.69
2018-01-08T03:27:29.985Z,5.07
2018-01-08T03:29:58.331Z,4.67
2018-01-08T03:32:26.710Z,4.77
2018-01-08T03:34:55.080Z,5.13
2018-01-08T03:37:23.467Z,4.89
2018-01-08T03:39:51.820Z,4.07
2018-01-08T03:42:20.188Z,5.77
2018-01-08T03:44:48.571Z,5.17
2018-01-08T03:47:16.927Z,5.37
2018-01-08T03:49:45.341Z,5.12
2018-01-08T03:52:13.729Z,5.46
2018-01-08T03:54:42.090Z,5.26
2018-01-08T03:57:10.451Z,5.63
2018-01-08T03:59:38.819Z,5.15
2018-01-08T04:02:07.180Z,5.44
2018-01-08T04:04:35.583Z,4.74
2018-01-08T04:07:04.627Z,4.31
2018-01-08T04:09:32.991Z,5.08
2018-01-08T04:12:01.355Z,5.56
2018-01-08T04:14:29.829Z,4.43
2018-01-08T04:16:58.259Z,5.00
2018-01-08T04:19:26.620Z,4.92
2018-01-08T04:21:54.989Z,4.35
2018-01-08T04:24:23.346Z,5.10
2018-01-08T04:26:51.794Z,4.62
2018-01-08T04:29:20.205Z,5.13
2018-01-08T04:31:48.568Z,5.58
2018-01-08T04:34:16.951Z,4.38
2018-01-08T04:36:45.308Z,4.92
2018-01-08T04:39:13.675Z,5.01
2018-01-08T04:41:42.067Z,4.67
2018-01-08T04:44:10.430Z,4.30
2018-01-08T04:46:38.788Z,5.02
2018-01-08T04:49:07.142Z,4.97
2018-01-08T04:51:35.501Z,5.26
2018-01-08T04:54:03.884Z,5.88
2018-01-08T04:56:32.266Z,4.78
2018-01-08T04:59:00.638Z,4.64
2018-01-08T05:01:29.117Z,4.50
2018-01-08T05:03:57.469Z,4.97
2018-01-08T05:06:25.866Z,5.60
2018-01-08T05:08:54.220Z,4.58
2018-01-08T05:11:22.571Z,4.31
2018-01-08T05:13:50.947Z,5.45
2018-01-08T05:16:19.311Z,5.00
2018-01-08T05:18:47.698Z,4.32
2018-01-08T05:21:16.056Z,4.87
2018-01-08T05:23:44.421Z,4.71
2018-01-08T05:26:12.791Z,4.68
2018-01-08T05:28:41.171Z,4.95
2018-01-08T05:31:09.563Z,4.61
2018-01-08T05:33:37.917Z,5.39
2018-01-08T05:36:06.274Z,4.64
2018-01-08T05:38:34.628Z,5.10
2018-01-08T05:41:02.988Z,5.45
2018-01-08T05:43:31.376Z,4.97
2018-01-08T05:45:59.741Z,4.31
2018-01-08T05:48:28.111Z,4.76
2018-01-08T05:50:56.463Z,4.74
2018-01-08T05:53:24.818Z,4.83
2018-01-08T05:55:53.315Z,4.32
2018-01-08T05:58:21.680Z,5.18
2018-01-08T06:00:50.049Z,4.62
2018-01-08T06:03:18.429Z,5.07
2018-01-08T06:05:46.772Z,4.94
2018-01-08T06:08:15.172Z,4.68
2018-01-08T06:10:43.526Z,5.70
2018-01-08T06:13:11.911Z,4.62
2018-01-08T06:15:40.269Z,5.47
2018-01-08T06:18:08.629Z,4.72
2018-01-08T06:20:37.021Z,5.45
2018-01-08T06:23:05.367Z,5.88
2018-01-08T06:25:33.738Z,4.80
2018-01-08T06:28:02.096Z,6.06
2018-01-08T06:30:30.456Z,5.08
2018-01-08T06:32:58.940Z,5.54
2018-01-08T06:35:27.352Z,5.43
2018-01-08T06:37:55.703Z,6.36
2018-01-08T06:40:24.152Z,6.13
2018-01-08T06:42:52.525Z,6.06
2018-01-08T06:45:20.897Z,6.07
2018-01-08T06:47:49.293Z,5.54
2018-01-08T06:50:17.659Z,5.79
2018-01-08T06:52:46.031Z,5.50
2018-01-08T06:55:14.390Z,4.86
2018-01-08T06:57:42.749Z,4.83
2018-01-08T07:00:11.132Z,5.62
2018-01-08T07:02:39.524Z,6.45
2018-01-08T07:05:07.880Z,5.72
2018-01-08T07:07:36.260Z,5.93
2018-01-08T07:10:04.617Z,6.23
2018-01-08T07:12:33.004Z,6.35
2018-01-08T07:15:01.403Z,5.54
2018-01-08T07:17:29.872Z,5.15
2018-01-08T07:19:58.218Z,5.31
2018-01-08T07:22:26.574Z,5.66
2018-01-08T07:24:54.979Z,5.68
2018-01-08T07:27:23.342Z,5.80
2018-01-08T07:29:52.611Z,5.43
2018-01-08T07:32:20.964Z,6.20
2018-01-08T07:34:49.330Z,5.96
2018-01-08T07:37:17.730Z,5.40
2018-01-08T07:39:46.096Z,4.63
2018-01-08T07:42:14.466Z,5.07
2018-01-08T07:44:42.982Z,5.39
2018-01-08T07:47:11.344Z,5.36
2018-01-08T07:49:40.007Z,5.61
2018-01-08T07:52:08.384Z,5.70
2018-01-08T07:54:36.745Z,5.22
2018-01-08T07:57:05.102Z,5.77
2018-01-08T07:59:33.464Z,5.08
2018-01-08T08:02:01.868Z,5.76
2018-01-08T08:04:30.213Z,5.20
2018-01-08T08:06:58.579Z,5.79
2018-01-08T08:09:26.945Z,5.86
2018-01-08T08:11:55.303Z,6.35
2018-01-08T08:14:28.569Z,5.60
2018-01-08T08:16:57.825Z,5.21
2018-01-08T08:19:26.192Z,6.33
2018-01-08T08:21:54.575Z,6.61
2018-01-08T08:24:22.939Z,6.01
2018-01-08T08:26:51.452Z,4.92
2018-01-08T08:29:19.834Z,5.17
2018-01-08T08:31:48.200Z,6.03
2018-01-08T08:34:16.596Z,6.63
2018-01-08T08:36:44.953Z,6.52
2018-01-08T08:39:13.347Z,6.48
2018-01-08T08:41:41.708Z,6.31
2018-01-08T08:44:10.067Z,6.16
2018-01-08T08:46:38.425Z,6.56
2018-01-08T08:49:06.799Z,6.40
2018-01-08T08:51:35.208Z,5.61
2018-01-08T08:54:03.556Z,5.75
2018-01-08T08:56:31.927Z,5.80
2018-01-08T08:59:00.271Z,5.68
2018-01-08T09:01:28.704Z,5.95
2018-01-08T09:03:57.194Z,5.88
2018-01-08T09:06:25.585Z,6.10
2018-01-08T09:08:53.935Z,5.29
2018-01-08T09:11:22.314Z,5.12
2018-01-08T09:13:50.668Z,5.31
2018-01-08T09:16:19.168Z,5.77
2018-01-08T09:18:47.565Z,4.50
2018-01-08T09:21:15.923Z,5.15
2018-01-08T09:23:44.307Z,5.72
2018-01-08T09:26:12.727Z,5.38
2018-01-08T09:28:41.061Z,6.35
2018-01-08T09:31:09.619Z,6.73
2018-01-08T09:33:38.033Z,6.59
2018-01-08T09:36:06.457Z,6.09
2018-01-08T09:38:34.850Z,6.23
2018-01-08T09:41:03.264Z,6.44
2018-01-08T09:43:31.629Z,5.91
2018-01-08T09:46:00.025Z,5.62
2018-01-08T09:48:28.474Z,4.97
2018-01-08T09:50:56.849Z,5.74
2018-01-08T09:53:25.208Z,7.22
2018-01-08T09:55:53.619Z,5.73
2018-01-08T09:58:21.986Z,6.47
2018-01-08T10:00:50.405Z,5.80
2018-01-08T10:03:30.439Z,5.83
2018-01-08T10:06:16.500Z,6.32
2018-01-08T10:09:02.544Z,4.86
2018-01-08T10:11:48.616Z,5.51
2018-01-08T10:14:34.625Z,5.95
2018-01-08T10:17:20.624Z,5.08
2018-01-08T10:19:59.803Z,4.80
2018-01-08T10:22:27.886Z,5.35
2018-01-08T10:24:56.232Z,6.19
2018-01-08T10:27:24.620Z,5.26
2018-01-08T10:29:53.046Z,5.79
2018-01-08T10:32:21.432Z,5.89
2018-01-08T10:34:49.847Z,5.84
2018-01-08T10:37:18.213Z,5.11
2018-01-08T10:39:46.664Z,5.98
2018-01-08T10:42:20.706Z,6.00
2018-01-08T10:44:54.632Z,6.38
2018-01-08T10:47:28.596Z,5.92
2018-01-08T10:50:02.594Z,5.81
2018-01-08T10:52:30.955Z,6.61
2018-01-08T10:55:08.809Z,6.19
2018-01-08T10:57:37.221Z,6.13
2018-01-08T11:00:05.572Z,5.41
2018-01-08T11:02:39.465Z,6.53
2018-01-08T11:05:07.832Z,5.81
2018-01-08T11:07:36.245Z,6.25
2018-01-08T11:10:04.669Z,6.59
2018-01-08T11:12:33.031Z,6.39
2018-01-08T11:15:01.428Z,6.02
2018-01-08T11:17:29.820Z,6.99
2018-01-08T11:19:58.179Z,5.59
2018-01-08T11:22:26.619Z,6.18
2018-01-08T11:24:54.972Z,5.43
2018-01-08T11:27:23.356Z,7.27
2018-01-08T11:29:51.762Z,5.59
2018-01-08T11:32:20.124Z,7.17
2018-01-08T11:34:48.531Z,6.90
2018-01-08T11:37:16.934Z,6.70
2018-01-08T11:39:45.289Z,6.74
2018-01-08T11:42:13.689Z,5.84
2018-01-08T11:44:42.060Z,7.70
2018-01-08T11:47:10.569Z,5.99
2018-01-08T11:49:38.952Z,7.15
2018-01-08T11:52:07.342Z,6.77
2018-01-08T11:54:35.749Z,7.65
2018-01-08T11:57:04.116Z,7.41
2018-01-08T11:59:32.490Z,6.98
2018-01-08T12:02:00.990Z,7.39
2018-01-08T12:04:29.361Z,6.90
2018-01-08T12:06:57.718Z,7.06
2018-01-08T12:09:26.096Z,7.39
2018-01-08T12:11:54.462Z,8.01
2018-01-08T12:14:22.890Z,6.88
2018-01-08T12:16:51.288Z,8.12
2018-01-08T12:19:19.672Z,7.82
2018-01-08T12:21:48.045Z,7.19
2018-01-08T12:24:16.484Z,7.47
2018-01-08T12:26:44.997Z,7.30
2018-01-08T12:29:13.357Z,7.31
2018-01-08T12:31:41.756Z,7.41
2018-01-08T12:34:10.118Z,7.28
2018-01-08T12:36:38.651Z,7.28
2018-01-08T12:39:07.036Z,6.86
2018-01-08T12:41:35.406Z,7.95
2018-01-08T12:44:03.757Z,7.80
2018-01-08T12:46:32.142Z,8.22
2018-01-08T12:49:00.514Z,7.61
2018-01-08T12:51:28.906Z,7.86
2018-01-08T12:53:57.264Z,6.37
2018-01-08T12:56:25.687Z,7.95
2018-01-08T12:58:54.063Z,7.80
2018-01-08T13:01:22.418Z,7.23
2018-01-08T13:03:50.807Z,8.12
2018-01-08T13:06:19.237Z,7.56
2018-01-08T13:08:47.604Z,8.41
2018-01-08T13:11:15.966Z,7.33
2018-01-08T13:13:44.333Z,7.77
2018-01-08T13:16:12.696Z,7.79
2018-01-08T13:18:41.095Z,7.47
2018-01-08T13:21:09.462Z,8.05
2018-01-08T13:23:37.952Z,7.58
2018-01-08T13:26:06.343Z,7.74
2018-01-08T13:28:34.706Z,6.52
2018-01-08T13:31:03.116Z,7.72
2018-01-08T13:33:31.510Z,7.91
2018-01-08T13:35:59.904Z,8.40
2018-01-08T13:38:28.268Z,8.26
2018-01-08T13:40:56.662Z,7.43
2018-01-08T13:43:25.038Z,7.99
2018-01-08T13:45:53.390Z,7.90
2018-01-08T13:48:21.746Z,7.45
2018-01-08T13:50:50.095Z,8.65
2018-01-08T13:53:18.480Z,7.93
2018-01-08T13:55:46.839Z,7.61
2018-01-08T13:58:15.216Z,7.39
2018-01-08T14:00:43.607Z,7.44
2018-01-08T14:03:11.982Z,7.35
2018-01-08T14:05:40.400Z,7.29
2018-01-08T14:08:08.811Z,7.11
2018-01-08T14:10:37.186Z,7.20
2018-01-08T14:13:05.560Z,6.81
2018-01-08T14:15:33.970Z,7.50
2018-01-08T14:18:02.411Z,7.34
2018-01-08T14:20:30.771Z,6.78
2018-01-08T14:22:59.136Z,7.18
2018-01-08T14:25:27.504Z,7.42
2018-01-08T14:27:55.874Z,7.30
2018-01-08T14:30:24.327Z,7.36
2018-01-08T14:32:52.728Z,7.39
2018-01-08T14:35:21.095Z,6.65
2018-01-08T14:37:49.454Z,6.94
2018-01-08T14:40:17.953Z,6.80
2018-01-08T14:42:46.319Z,6.85
2018-01-08T14:45:14.696Z,6.35
2018-01-08T14:47:43.104Z,6.45
2018-01-08T14:50:11.468Z,7.72
2018-01-08T14:52:39.863Z,6.76
2018-01-08T14:55:08.231Z,6.87
2018-01-08T14:57:36.595Z,7.44
2018-01-08T15:00:04.967Z,6.52
2018-01-08T15:02:33.337Z,7.11
2018-01-08T15:05:01.763Z,6.07
2018-01-08T15:07:30.129Z,6.77
2018-01-08T15:09:58.509Z,7.55
2018-01-08T15:12:26.876Z,7.35
2018-01-08T15:14:55.283Z,6.31
2018-01-08T15:17:23.792Z,6.67
2018-01-08T15:19:52.151Z,6.81
2018-01-08T15:22:20.518Z,6.81
2018-01-08T15:24:48.966Z,5.74
2018-01-08T15:27:17.342Z,6.37
2018-01-08T15:29:45.697Z,7.05
2018-01-08T15:32:14.080Z,8.42
2018-01-08T15:34:42.440Z,7.97
2018-01-08T15:37:10.840Z,7.99
2018-01-08T15:39:39.201Z,6.99
2018-01-08T15:42:07.563Z,7.08
2018-01-08T15:44:35.935Z,6.80
2018-01-08T15:47:04.303Z,8.00
2018-01-08T15:49:32.800Z,7.20
2018-01-08T15:52:01.212Z,7.41
2018-01-08T15:54:29.581Z,7.16
2018-01-08T15:56:57.962Z,8.31
2018-01-08T15:59:26.323Z,7.89
2018-01-08T16:01:54.803Z,8.43
2018-01-08T16:04:23.165Z,7.81
2018-01-08T16:06:51.556Z,8.26
2018-01-08T16:11:47.403Z,7.88
2018-01-08T16:14:15.892Z,7.05
2018-01-08T16:16:44.243Z,7.58
2018-01-08T16:19:12.647Z,7.02
2018-01-08T16:21:41.019Z,6.24
2018-01-08T16:24:09.387Z,7.65
2018-01-08T16:26:37.777Z,6.99
2018-01-08T16:29:06.139Z,6.31
2018-01-08T16:31:34.494Z,6.88
2018-01-08T16:34:02.857Z,6.94
2018-01-08T16:36:31.204Z,6.94
2018-01-08T16:38:59.600Z,7.16
2018-01-08T16:41:27.958Z,7.23
2018-01-08T16:43:56.312Z,7.44
2018-01-08T16:46:24.790Z,7.78
2018-01-08T16:48:53.159Z,6.39
2018-01-08T16:51:21.563Z,7.28
2018-01-08T16:53:49.932Z,6.57
2018-01-08T16:56:18.311Z,7.30
2018-01-08T16:58:46.668Z,6.09
2018-01-08T17:01:15.028Z,6.99
2018-01-08T17:03:43.438Z,7.00
2018-01-08T17:06:11.879Z,6.33
2018-01-08T17:08:40.320Z,6.88
2018-01-08T17:11:08.683Z,7.05
2018-01-08T17:13:37.045Z,7.00
2018-01-08T17:16:05.431Z,6.17
2018-01-08T17:18:33.800Z,5.77
2018-01-08T17:21:02.179Z,6.17
2018-01-08T17:23:30.569Z,6.90
2018-01-08T17:25:58.915Z,7.16
2018-01-08T17:28:27.323Z,6.23
2018-01-08T17:30:55.698Z,5.95
2018-01-08T17:33:24.047Z,6.05
2018-01-08T17:35:52.466Z,6.06
2018-01-08T17:38:20.848Z,5.87
2018-01-08T17:40:49.353Z,6.33
2018-01-08T17:43:17.731Z,5.82
2018-01-08T17:45:46.099Z,6.39
2018-01-08T17:48:14.479Z,7.13
2018-01-08T17:50:42.835Z,5.91
2018-01-08T17:53:11.358Z,6.85
2018-01-08T17:55:39.780Z,6.71
2018-01-08T17:58:08.202Z,7.22
2018-01-08T18:00:37.450Z,6.17
2018-01-08T18:03:05.826Z,6.07
2018-01-08T18:05:34.207Z,6.50
2018-01-08T18:08:02.563Z,6.48
2018-01-08T18:10:30.914Z,6.31
2018-01-08T18:12:59.286Z,6.38
2018-01-08T18:15:27.689Z,6.33
2018-01-08T18:17:56.081Z,5.98
2018-01-08T18:20:24.504Z,6.97
2018-01-08T18:22:52.875Z,6.68
2018-01-08T18:25:21.285Z,6.64
2018-01-08T18:27:49.692Z,6.07
2018-01-08T18:30:18.107Z,5.77
2018-01-08T18:32:46.481Z,6.59
2018-01-08T18:35:14.843Z,5.91
2018-01-08T18:37:43.250Z,5.96
2018-01-08T18:40:11.628Z,6.54
2018-01-08T18:42:40.034Z,6.03
2018-01-08T18:45:08.392Z,6.71
2018-01-08T18:47:36.745Z,5.96
2018-01-08T18:50:05.214Z,6.33
2018-01-08T18:52:33.708Z,6.13
2018-01-08T18:55:02.109Z,5.76
2018-01-08T18:57:30.446Z,6.83
2018-01-08T18:59:58.824Z,6.15
2018-01-08T19:02:27.198Z,5.33
2018-01-08T19:04:55.580Z,7.09
2018-01-08T19:07:23.963Z,6.09
2018-01-08T19:09:52.328Z,5.66
2018-01-08T19:12:20.695Z,5.68
2018-01-08T19:14:49.080Z,6.84
2018-01-08T19:17:17.439Z,6.40
2018-01-08T19:19:45.854Z,5.93
2018-01-08T19:22:14.220Z,6.36
2018-01-08T19:24:42.581Z,5.95
2018-01-08T19:27:10.940Z,5.98
2018-01-08T19:29:39.289Z,7.01
2018-01-08T19:32:07.717Z,6.92
2018-01-08T19:34:36.116Z,6.07
2018-01-08T19:37:04.499Z,6.72
2018-01-08T19:39:32.887Z,5.61
2018-01-08T19:42:01.259Z,6.42
2018-01-08T19:44:29.756Z,6.34
2018-01-08T19:46:58.123Z,7.08
2018-01-08T19:49:26.487Z,6.48
2018-01-08T19:51:54.848Z,6.28
2018-01-08T19:54:23.236Z,7.27
2018-01-08T19:56:51.653Z,6.93
2018-01-08T19:59:20.015Z,5.94
2018-01-08T20:01:48.371Z,7.30
2018-01-08T20:04:16.745Z,6.33
2018-01-08T20:06:45.125Z,6.14
2018-01-08T20:09:13.519Z,6.79
2018-01-08T20:11:42.788Z,6.15
2018-01-08T20:14:11.154Z,6.29
2018-01-08T20:16:39.589Z,6.62
2018-01-08T20:19:07.972Z,7.12
2018-01-08T20:21:36.419Z,6.38
2018-01-08T20:24:04.827Z,5.69
2018-01-08T20:26:33.198Z,6.68
2018-01-08T20:29:01.555Z,6.41
2018-01-08T20:31:29.935Z,6.84
2018-01-08T20:33:58.339Z,6.31
2018-01-08T20:36:26.683Z,6.54
2018-01-08T20:38:55.046Z,6.63
2018-01-08T20:41:23.432Z,5.95
2018-01-08T20:43:51.793Z,7.35
2018-01-08T20:46:20.152Z,6.58
2018-01-08T20:48:48.631Z,5.91
2018-01-08T20:51:17.041Z,6.01
2018-01-08T20:53:45.412Z,6.97
2018-01-08T20:56:13.819Z,7.27
2018-01-08T20:58:42.168Z,6.04
2018-01-08T21:01:10.540Z,6.88
2018-01-08T21:03:39.263Z,6.87
2018-01-08T21:06:07.843Z,5.45
2018-01-08T21:08:36.196Z,6.62
2018-01-08T21:11:04.645Z,6.79
2018-01-08T21:13:33.007Z,6.83
2018-01-08T21:16:01.366Z,5.84
2018-01-08T21:18:29.723Z,7.01
2018-01-08T21:20:58.072Z,5.93
2018-01-08T21:23:26.467Z,6.11
2018-01-08T21:25:54.871Z,6.87
2018-01-08T21:28:23.234Z,6.99
2018-01-08T21:30:51.593Z,6.82
2018-01-08T21:33:19.947Z,6.69
2018-01-08T21:35:48.375Z,6.88
2018-01-08T21:38:16.728Z,7.36
2018-01-08T21:40:45.104Z,6.07
2018-01-08T21:43:13.470Z,5.43
2018-01-08T21:45:41.854Z,7.30
2018-01-08T21:48:10.265Z,6.93
2018-01-08T21:50:38.635Z,7.01
2018-01-08T21:53:07.227Z,5.31
2018-01-08T21:55:35.584Z,7.30
2018-01-08T21:58:04.092Z,6.64
2018-01-08T22:00:32.606Z,6.75
2018-01-08T22:03:00.967Z,6.52
2018-01-08T22:05:29.332Z,7.09
2018-01-08T22:07:57.704Z,7.26
2018-01-08T22:10:26.055Z,6.22
2018-01-08T22:12:54.902Z,6.76
2018-01-08T22:15:23.309Z,7.50
2018-01-08T22:17:51.688Z,7.19
2018-01-08T22:20:20.117Z,6.36
2018-01-08T22:22:48.503Z,5.64
2018-01-08T22:25:16.991Z,5.68
2018-01-08T22:27:45.395Z,5.70
2018-01-08T22:30:13.762Z,5.65
2018-01-08T22:32:42.121Z,7.30
2018-01-08T22:35:10.559Z,7.58
2018-01-08T22:37:39.146Z,6.45
2018-01-08T22:40:07.539Z,5.80
2018-01-08T22:42:36.008Z,5.87
2018-01-08T22:45:04.407Z,6.55
2018-01-08T22:47:32.763Z,6.47
2018-01-08T22:50:01.124Z,5.85
2018-01-08T22:52:29.483Z,6.09
2018-01-08T22:54:57.847Z,6.09
2018-01-08T22:57:26.334Z,5.59
2018-01-08T22:59:54.687Z,6.21
2018-01-08T23:02:23.045Z,5.90
2018-01-08T23:04:51.408Z,6.11
2018-01-08T23:07:19.761Z,5.54
2018-01-08T23:09:48.161Z,5.68
2018-01-08T23:12:16.533Z,5.00
2018-01-08T23:14:44.904Z,6.22
2018-01-08T23:17:13.265Z,6.83
2018-01-08T23:19:41.651Z,6.43
2018-01-08T23:22:10.051Z,6.66
2018-01-08T23:24:38.403Z,6.15
2018-01-08T23:27:06.785Z,5.80
2018-01-08T23:29:35.167Z,6.05
2018-01-08T23:32:03.536Z,5.70
2018-01-08T23:34:31.942Z,6.10
2018-01-08T23:37:00.312Z,6.27
2018-01-08T23:39:28.684Z,6.73
2018-01-08T23:41:57.062Z,5.11
2018-01-08T23:44:25.460Z,5.13
2018-01-08T23:46:53.811Z,5.80
2018-01-08T23:49:22.182Z,6.10
2018-01-08T23:51:50.633Z,5.84
2018-01-08T23:54:22.698Z,6.01
2018-01-08T23:56:51.106Z,6.30
2018-01-08T23:59:19.468Z,6.27
